createdAt,value
2022-10-19T00:02:27.285Z,100.00
2022-10-19T00:04:58.843Z,100.00
2022-10-19T00:07:30.932Z,100.00
2022-10-19T00:10:02.665Z,100.00
2022-10-19T00:12:34.512Z,100.00
2022-10-19T00:15:06.044Z,100.00
2022-10-19T00:17:37.904Z,100.00
2022-10-19T00:20:09.394Z,100.00
2022-10-19T00:22:41.222Z,100.00
2022-10-19T00:25:12.707Z,100.00
2022-10-19T00:27:44.915Z,100.00
2022-10-19T00:30:16.501Z,100.00
2022-10-19T00:32:48.410Z,100.00
2022-10-19T00:35:19.906Z,100.00
2022-10-19T00:37:52.360Z,100.00
2022-10-19T00:40:23.941Z,100.00
2022-10-19T00:42:56.517Z,100.00
2022-10-19T00:45:28.057Z,100.00
2022-10-19T00:47:59.877Z,100.00
2022-10-19T00:50:31.412Z,100.00
2022-10-19T00:53:03.307Z,100.00
2022-10-19T00:55:34.784Z,100.00
2022-10-19T00:58:06.596Z,100.00
2022-10-19T01:00:38.182Z,100.00
2022-10-19T01:03:10.068Z,100.00
2022-10-19T01:05:41.616Z,100.00
2022-10-19T01:08:13.445Z,100.00
2022-10-19T01:10:45.012Z,100.00
2022-10-19T01:13:16.945Z,100.00
2022-10-19T01:15:48.470Z,100.00
2022-10-19T01:18:20.467Z,100.00
2022-10-19T01:20:51.961Z,100.00
2022-10-19T01:23:23.467Z,100.00
2022-10-19T01:25:55.234Z,100.00
2022-10-19T01:28:27.277Z,100.00
2022-10-19T01:30:59.138Z,100.00
2022-10-19T01:33:30.617Z,100.00
2022-10-19T01:36:02.491Z,100.00
2022-10-19T01:38:33.982Z,100.00
2022-10-19T01:41:05.846Z,100.00
2022-10-19T01:43:37.355Z,100.00
2022-10-19T01:46:08.861Z,100.00
2022-10-19T01:51:16.106Z,100.00
2022-10-19T01:53:47.697Z,100.00
2022-10-19T01:56:19.546Z,100.00
2022-10-19T01:58:51.039Z,100.00
2022-10-19T02:01:22.830Z,100.00
2022-10-19T02:03:54.315Z,100.00
2022-10-19T02:06:26.189Z,100.00
2022-10-19T02:08:57.673Z,100.00
2022-10-19T02:11:29.597Z,100.00
2022-10-19T02:14:01.093Z,100.00
2022-10-19T02:16:32.923Z,100.00
2022-10-19T02:19:04.538Z,100.00
2022-10-19T02:21:36.480Z,100.00
2022-10-19T02:24:07.964Z,100.00
2022-10-19T02:26:39.484Z,100.00
2022-10-19T02:29:10.989Z,100.00
2022-10-19T02:31:42.797Z,100.00
2022-10-19T02:34:14.309Z,100.00
2022-10-19T02:36:46.333Z,100.00
2022-10-19T02:39:17.815Z,100.00
2022-10-19T02:41:49.618Z,100.00
2022-10-19T02:44:21.112Z,100.00
2022-10-19T02:46:52.918Z,100.00
2022-10-19T02:49:24.431Z,100.00
2022-10-19T02:51:56.298Z,100.00
2022-10-19T02:54:27.781Z,100.00
2022-10-19T02:56:59.634Z,100.00
2022-10-19T02:59:31.129Z,100.00
2022-10-19T03:02:02.934Z,100.00
2022-10-19T03:04:34.522Z,100.00
2022-10-19T03:07:06.668Z,100.00
2022-10-19T03:09:38.167Z,100.00
2022-10-19T03:12:10.026Z,100.00
2022-10-19T03:14:41.511Z,100.00
2022-10-19T03:17:13.312Z,100.00
2022-10-19T03:19:44.819Z,100.00
2022-10-19T03:22:16.652Z,100.00
2022-10-19T03:24:48.406Z,100.00
2022-10-19T03:27:19.962Z,100.00
2022-10-19T03:29:51.516Z,100.00
2022-10-19T03:32:23.293Z,100.00
2022-10-19T03:34:54.781Z,100.00
2022-10-19T03:37:26.570Z,100.00
2022-10-19T03:39:58.045Z,100.00
2022-10-19T03:42:30.113Z,100.00
2022-10-19T03:45:01.944Z,100.00
2022-10-19T03:47:34.096Z,100.00
2022-10-19T03:50:06.095Z,100.00
2022-10-19T03:52:37.871Z,100.00
2022-10-19T03:55:10.354Z,100.00
2022-10-19T03:57:42.182Z,100.00
2022-10-19T04:00:13.675Z,100.00
2022-10-19T04:02:45.551Z,100.00
2022-10-19T04:05:17.036Z,100.00
2022-10-19T04:07:48.859Z,100.00
2022-10-19T04:10:20.376Z,100.00
2022-10-19T04:12:53.864Z,100.00
2022-10-19T04:15:25.700Z,100.00
2022-10-19T04:17:57.661Z,100.00
2022-10-19T04:20:29.190Z,100.00
2022-10-19T04:23:00.991Z,100.00
2022-10-19T04:25:32.483Z,100.00
2022-10-19T04:28:04.425Z,100.00
2022-10-19T04:30:35.949Z,100.00
2022-10-19T04:33:07.945Z,100.00
2022-10-19T04:35:39.427Z,100.00
2022-10-19T04:38:11.460Z,100.00
2022-10-19T04:40:43.286Z,100.00
2022-10-19T04:43:14.892Z,100.00
2022-10-19T04:45:46.715Z,100.00
2022-10-19T04:48:18.238Z,100.00
2022-10-19T04:50:50.072Z,100.00
2022-10-19T04:53:21.594Z,100.00
2022-10-19T04:55:53.485Z,100.00
2022-10-19T04:58:25.046Z,100.00
2022-10-19T05:00:56.918Z,100.00
2022-10-19T05:03:28.426Z,100.00
2022-10-19T05:06:00.276Z,100.00
2022-10-19T05:08:31.803Z,100.00
2022-10-19T05:11:03.838Z,100.00
2022-10-19T05:13:35.346Z,100.00
2022-10-19T05:16:07.309Z,100.00
2022-10-19T05:18:38.799Z,100.00
2022-10-19T05:21:10.304Z,100.00
2022-10-19T05:23:41.835Z,100.00
2022-10-19T05:26:13.603Z,100.00
2022-10-19T05:28:45.134Z,100.00
2022-10-19T05:31:17.627Z,100.00
2022-10-19T05:33:49.195Z,100.00
2022-10-19T05:36:20.815Z,100.00
2022-10-19T05:38:52.739Z,100.00
2022-10-19T05:41:24.760Z,100.00
2022-10-19T05:43:56.269Z,100.00
2022-10-19T05:46:28.157Z,100.00
2022-10-19T05:48:59.695Z,100.00
2022-10-19T05:51:31.442Z,100.00
2022-10-19T05:54:03.818Z,100.00
2022-10-19T05:56:35.637Z,100.00
2022-10-19T05:59:07.151Z,100.00
2022-10-19T06:01:39.166Z,100.00
2022-10-19T06:04:10.886Z,100.00
2022-10-19T06:06:42.871Z,100.00
2022-10-19T06:09:14.359Z,100.00
2022-10-19T06:11:46.286Z,100.00
2022-10-19T06:14:17.805Z,100.00
2022-10-19T06:16:49.674Z,100.00
2022-10-19T06:19:21.158Z,100.00
2022-10-19T06:21:53.045Z,100.00
2022-10-19T06:24:24.627Z,100.00
2022-10-19T06:26:56.506Z,100.00
2022-10-19T06:29:28.008Z,100.00
2022-10-19T06:32:00.784Z,100.00
2022-10-19T06:34:32.362Z,100.00
2022-10-19T06:37:03.952Z,100.00
2022-10-19T06:39:35.915Z,100.00
2022-10-19T06:42:07.825Z,100.00
2022-10-19T06:44:39.325Z,100.00
2022-10-19T06:47:11.123Z,100.00
2022-10-19T06:49:42.655Z,100.00
2022-10-19T06:52:14.617Z,100.00
2022-10-19T06:54:46.437Z,100.00
2022-10-19T06:57:17.944Z,100.00
2022-10-19T06:59:52.812Z,100.00
2022-10-19T07:02:25.194Z,100.00
2022-10-19T07:04:57.048Z,100.00
2022-10-19T07:07:28.553Z,100.00
2022-10-19T07:10:00.161Z,100.00
2022-10-19T07:12:31.671Z,100.00
2022-10-19T07:15:03.568Z,100.00
2022-10-19T07:17:35.425Z,100.00
2022-10-19T07:20:07.359Z,100.00
2022-10-19T07:22:38.863Z,100.00
2022-10-19T07:25:10.866Z,100.00
2022-10-19T07:27:42.602Z,100.00
2022-10-19T07:30:14.694Z,100.00
2022-10-19T07:32:47.163Z,100.00
2022-10-19T07:35:19.172Z,100.00
2022-10-19T07:37:50.682Z,100.00
2022-10-19T07:40:22.456Z,100.00
2022-10-19T07:42:53.962Z,100.00
2022-10-19T07:45:25.834Z,100.00
2022-10-19T07:47:57.326Z,100.00
2022-10-19T07:50:29.247Z,100.00
2022-10-19T07:53:02.658Z,99.97
2022-10-19T07:55:34.516Z,98.46
2022-10-19T07:58:06.047Z,97.98
2022-10-19T08:00:37.882Z,98.82
2022-10-19T08:03:57.109Z,97.51
2022-10-19T08:06:01.347Z,95.13
2022-10-19T08:08:33.179Z,93.97
2022-10-19T08:11:04.674Z,94.16
2022-10-19T08:13:36.476Z,93.26
2022-10-19T08:16:07.982Z,92.86
2022-10-19T08:18:39.903Z,93.17
2022-10-19T08:21:11.396Z,93.48
2022-10-19T08:23:43.409Z,91.99
2022-10-19T08:26:14.965Z,93.07
2022-10-19T08:28:46.788Z,94.25
2022-10-19T08:31:18.348Z,94.12
2022-10-19T08:33:50.253Z,95.29
2022-10-19T08:36:22.175Z,96.40
2022-10-19T08:38:54.007Z,96.07
2022-10-19T08:41:25.517Z,96.42
2022-10-19T08:43:57.401Z,96.09
2022-10-19T08:46:30.101Z,96.78
2022-10-19T08:49:02.455Z,97.18
2022-10-19T08:51:33.948Z,94.69
2022-10-19T08:54:05.845Z,93.39
2022-10-19T08:56:52.756Z,93.10
2022-10-19T08:59:24.586Z,90.68
2022-10-19T09:01:56.826Z,89.86
2022-10-19T09:04:28.649Z,88.12
2022-10-19T09:07:00.415Z,87.38
2022-10-19T09:09:32.503Z,88.00
2022-10-19T09:12:04.063Z,86.76
2022-10-19T09:14:36.775Z,87.89
2022-10-19T09:17:08.296Z,87.20
2022-10-19T09:19:40.155Z,86.68
2022-10-19T09:22:11.645Z,83.18
2022-10-19T09:24:44.209Z,81.58
2022-10-19T09:27:15.718Z,79.49
2022-10-19T09:29:47.700Z,80.32
2022-10-19T09:32:19.213Z,81.59
2022-10-19T09:34:51.274Z,80.24
2022-10-19T09:37:26.285Z,81.35
2022-10-19T09:39:58.226Z,80.02
2022-10-19T09:42:30.770Z,79.00
2022-10-19T09:45:02.281Z,79.10
2022-10-19T09:47:34.305Z,78.56
2022-10-19T09:50:06.130Z,78.86
2022-10-19T09:52:38.328Z,78.81
2022-10-19T09:55:09.838Z,78.23
2022-10-19T09:57:41.780Z,80.07
2022-10-19T10:00:13.293Z,78.45
2022-10-19T10:05:21.549Z,77.71
2022-10-19T10:07:53.588Z,76.62
2022-10-19T10:10:28.151Z,75.95
2022-10-19T10:13:02.352Z,75.99
2022-10-19T10:15:33.877Z,74.28
2022-10-19T10:18:05.465Z,75.75
2022-10-19T10:20:37.051Z,76.21
2022-10-19T10:23:08.937Z,76.65
2022-10-19T10:25:40.561Z,77.03
2022-10-19T10:28:12.430Z,76.56
2022-10-19T10:30:43.923Z,73.79
2022-10-19T10:33:26.988Z,74.22
2022-10-19T10:36:05.030Z,75.31
2022-10-19T10:38:36.997Z,75.71
2022-10-19T10:41:08.927Z,73.95
2022-10-19T10:43:40.833Z,74.73
2022-10-19T10:46:12.417Z,72.64
2022-10-19T10:48:44.499Z,69.95
2022-10-19T10:51:15.994Z,67.63
2022-10-19T10:53:47.868Z,68.19
2022-10-19T10:56:19.351Z,67.86
2022-10-19T10:58:51.381Z,66.30
2022-10-19T11:01:22.921Z,68.23
2022-10-19T11:03:54.764Z,68.59
2022-10-19T11:06:26.844Z,69.18
2022-10-19T11:08:58.402Z,68.52
2022-10-19T11:11:30.412Z,67.04
2022-10-19T11:14:02.256Z,66.16
2022-10-19T11:16:33.778Z,63.91
2022-10-19T11:19:06.008Z,61.07
2022-10-19T11:21:37.556Z,59.06
2022-10-19T11:24:09.449Z,58.05
2022-10-19T11:26:40.936Z,58.66
2022-10-19T11:29:12.784Z,58.47
2022-10-19T11:31:45.767Z,58.45
2022-10-19T11:34:18.656Z,59.99
2022-10-19T11:36:50.863Z,60.90
2022-10-19T11:39:22.766Z,60.38
2022-10-19T11:41:54.252Z,60.58
2022-10-19T11:44:27.033Z,60.69
2022-10-19T11:46:58.544Z,61.63
2022-10-19T11:49:30.382Z,60.56
2022-10-19T11:52:02.713Z,61.75
2022-10-19T11:54:34.204Z,61.82
2022-10-19T11:57:10.537Z,60.50
2022-10-19T11:59:42.863Z,62.33
2022-10-19T12:02:14.432Z,59.19
2022-10-19T12:04:45.984Z,59.71
2022-10-19T12:07:17.828Z,58.19
2022-10-19T12:09:49.322Z,55.53
2022-10-19T12:12:21.098Z,56.16
2022-10-19T12:14:52.594Z,56.34
2022-10-19T12:17:24.876Z,57.21
2022-10-19T12:19:56.784Z,56.77
2022-10-19T12:22:28.754Z,57.89
2022-10-19T12:25:00.336Z,58.04
2022-10-19T12:27:32.427Z,58.36
2022-10-19T12:30:04.150Z,56.59
2022-10-19T12:32:35.981Z,55.86
2022-10-19T12:35:07.504Z,57.02
2022-10-19T12:37:39.384Z,56.51
2022-10-19T12:40:10.889Z,58.72
2022-10-19T12:42:42.874Z,56.05
2022-10-19T12:45:14.612Z,57.28
2022-10-19T12:47:46.434Z,55.68
2022-10-19T12:50:17.946Z,56.46
2022-10-19T12:52:49.935Z,56.23
2022-10-19T12:55:21.700Z,54.50
2022-10-19T12:57:53.526Z,57.76
2022-10-19T13:00:25.114Z,55.13
2022-10-19T13:02:57.127Z,55.04
2022-10-19T13:05:28.669Z,54.54
2022-10-19T13:08:00.504Z,55.69
2022-10-19T13:10:32.128Z,55.29
2022-10-19T13:13:03.939Z,54.78
2022-10-19T13:15:35.834Z,55.60
2022-10-19T13:18:08.351Z,54.71
2022-10-19T13:23:13.391Z,54.39
2022-10-19T13:25:44.897Z,53.90
2022-10-19T13:28:16.722Z,54.33
2022-10-19T13:30:48.235Z,53.61
2022-10-19T13:33:20.151Z,52.66
2022-10-19T13:35:51.647Z,51.94
2022-10-19T13:38:24.543Z,50.94
2022-10-19T13:40:56.102Z,50.77
2022-10-19T13:43:27.935Z,49.91
2022-10-19T13:45:59.425Z,49.39
2022-10-19T13:48:31.416Z,49.30
2022-10-19T13:51:02.943Z,48.89
2022-10-19T13:53:34.878Z,49.63
2022-10-19T13:56:06.381Z,48.73
2022-10-19T13:58:38.218Z,50.13
2022-10-19T14:01:09.753Z,49.91
2022-10-19T14:03:41.545Z,50.43
2022-10-19T14:06:13.120Z,49.13
2022-10-19T14:08:45.045Z,49.19
2022-10-19T14:11:16.675Z,48.83
2022-10-19T14:13:48.577Z,50.01
2022-10-19T14:16:20.574Z,49.02
2022-10-19T14:18:52.404Z,48.80
2022-10-19T14:21:23.895Z,48.45
2022-10-19T14:23:55.711Z,48.21
2022-10-19T14:26:28.564Z,48.74
2022-10-19T14:29:00.453Z,48.59
2022-10-19T14:31:31.967Z,48.91
2022-10-19T14:34:03.776Z,50.73
2022-10-19T14:36:35.286Z,52.97
2022-10-19T14:39:07.863Z,52.04
2022-10-19T14:41:39.366Z,52.79
2022-10-19T14:44:11.328Z,53.71
2022-10-19T14:46:42.831Z,53.42
2022-10-19T14:49:14.486Z,54.57
2022-10-19T14:51:45.999Z,54.67
2022-10-19T14:54:17.799Z,55.44
2022-10-19T14:56:49.297Z,55.56
2022-10-19T14:59:21.090Z,56.79
2022-10-19T15:01:52.667Z,55.80
2022-10-19T15:04:24.599Z,58.18
2022-10-19T15:06:56.121Z,57.70
2022-10-19T15:09:37.656Z,58.12
2022-10-19T15:12:18.808Z,59.38
2022-10-19T15:14:50.669Z,59.82
2022-10-19T15:17:22.540Z,59.06
2022-10-19T15:19:55.715Z,60.09
2022-10-19T15:22:27.549Z,62.07
2022-10-19T15:24:59.069Z,61.53
2022-10-19T15:27:30.797Z,62.33
2022-10-19T15:30:02.366Z,62.27
2022-10-19T15:32:35.848Z,63.40
2022-10-19T15:35:11.132Z,64.59
2022-10-19T15:37:43.759Z,64.32
2022-10-19T15:40:15.283Z,63.86
2022-10-19T15:42:49.217Z,65.00
2022-10-19T15:45:20.715Z,65.28
2022-10-19T15:47:52.582Z,66.16
2022-10-19T15:50:24.075Z,66.93
2022-10-19T15:52:56.009Z,66.37
2022-10-19T15:55:27.512Z,66.33
2022-10-19T15:57:59.421Z,66.70
2022-10-19T16:00:30.926Z,68.09
2022-10-19T16:03:02.904Z,69.51
2022-10-19T16:05:34.413Z,70.04
2022-10-19T16:08:08.971Z,70.44
2022-10-19T16:10:43.259Z,70.24
2022-10-19T16:13:14.809Z,71.08
2022-10-19T16:15:50.057Z,72.58
2022-10-19T16:18:28.270Z,74.23
2022-10-19T16:20:59.772Z,73.33
2022-10-19T16:23:36.550Z,74.55
2022-10-19T16:26:11.012Z,73.78
2022-10-19T16:28:43.008Z,74.24
2022-10-19T16:31:14.908Z,74.82
2022-10-19T16:33:46.728Z,77.33
2022-10-19T16:36:20.282Z,75.91
2022-10-19T16:38:52.217Z,76.54
2022-10-19T16:41:23.739Z,76.70
2022-10-19T16:43:55.584Z,76.48
2022-10-19T16:46:27.091Z,76.54
2022-10-19T16:48:59.049Z,77.12
2022-10-19T16:51:30.597Z,77.35
2022-10-19T16:54:02.468Z,77.82
2022-10-19T16:56:33.979Z,77.95
2022-10-19T16:59:05.771Z,77.85
2022-10-19T17:01:37.280Z,78.32
2022-10-19T17:04:09.241Z,78.27
2022-10-19T17:06:40.900Z,79.24
2022-10-19T17:12:04.638Z,80.32
2022-10-19T17:14:36.759Z,81.16
2022-10-19T17:17:08.700Z,82.33
2022-10-19T17:19:40.234Z,84.20
2022-10-19T17:22:12.196Z,86.48
2022-10-19T17:24:46.185Z,87.11
2022-10-19T17:27:17.784Z,87.35
2022-10-19T17:29:49.314Z,89.07
2022-10-19T17:32:21.253Z,88.81
2022-10-19T17:34:52.755Z,88.44
2022-10-19T17:37:24.557Z,88.35
2022-10-19T17:39:56.074Z,90.17
2022-10-19T17:42:27.804Z,92.85
2022-10-19T17:44:59.304Z,92.71
2022-10-19T17:47:31.239Z,92.98
2022-10-19T17:50:02.811Z,93.78
2022-10-19T17:52:34.763Z,94.73
2022-10-19T17:55:12.224Z,94.94
2022-10-19T17:57:45.053Z,95.54
2022-10-19T18:00:16.591Z,94.67
2022-10-19T18:02:49.345Z,96.26
2022-10-19T18:05:20.896Z,97.93
2022-10-19T18:07:54.077Z,97.80
2022-10-19T18:10:25.632Z,98.45
2022-10-19T18:12:57.461Z,97.60
2022-10-19T18:15:28.968Z,99.57
2022-10-19T18:18:00.844Z,99.92
2022-10-19T18:20:32.345Z,100.00
2022-10-19T18:23:04.243Z,99.37
2022-10-19T18:25:49.742Z,98.98
2022-10-19T18:28:25.515Z,100.00
2022-10-19T18:30:57.046Z,99.98
2022-10-19T18:33:32.418Z,98.94
2022-10-19T18:36:04.129Z,100.00
2022-10-19T18:38:35.903Z,100.00
2022-10-19T18:41:07.494Z,100.00
2022-10-19T18:43:39.350Z,98.89
2022-10-19T18:46:10.924Z,97.60
2022-10-19T18:48:42.782Z,96.77
2022-10-19T18:51:15.786Z,96.67
2022-10-19T18:53:47.417Z,97.28
2022-10-19T18:56:18.983Z,96.78
2022-10-19T18:58:50.536Z,97.07
2022-10-19T19:01:26.970Z,97.40
2022-10-19T19:03:58.699Z,96.33
2022-10-19T19:06:30.566Z,98.25
2022-10-19T19:09:02.185Z,97.78
2022-10-19T19:11:36.731Z,96.74
2022-10-19T19:14:08.725Z,98.04
2022-10-19T19:16:40.588Z,97.39
2022-10-19T19:19:12.096Z,98.66
2022-10-19T19:21:44.849Z,98.28
2022-10-19T19:24:16.600Z,98.82
2022-10-19T19:26:49.571Z,99.42
2022-10-19T19:29:21.058Z,99.19
2022-10-19T19:31:53.806Z,100.00
2022-10-19T19:34:25.376Z,100.00
2022-10-19T19:36:57.281Z,100.00
2022-10-19T19:39:28.870Z,100.00
2022-10-19T19:42:00.406Z,100.00
2022-10-19T19:44:31.919Z,100.00
2022-10-19T19:47:03.987Z,100.00
2022-10-19T19:49:35.880Z,100.00
2022-10-19T19:52:07.419Z,100.00
2022-10-19T19:54:39.438Z,100.00
2022-10-19T19:57:11.435Z,100.00
2022-10-19T19:59:43.269Z,100.00
2022-10-19T20:04:49.328Z,100.00
2022-10-19T20:07:20.823Z,100.00
2022-10-19T20:09:53.639Z,100.00
2022-10-19T20:12:25.133Z,100.00
2022-10-19T20:14:57.188Z,100.00
2022-10-19T20:17:28.665Z,100.00
2022-10-19T20:20:00.554Z,100.00
2022-10-19T20:22:32.056Z,100.00
2022-10-19T20:25:03.886Z,100.00
2022-10-19T20:27:35.591Z,100.00
2022-10-19T20:30:07.758Z,100.00
2022-10-19T20:32:39.296Z,100.00
2022-10-19T20:35:11.327Z,100.00
2022-10-19T20:37:42.884Z,100.00
2022-10-19T20:40:16.218Z,100.00
2022-10-19T20:42:48.330Z,100.00
2022-10-19T20:45:20.159Z,100.00
2022-10-19T20:47:51.657Z,100.00
2022-10-19T20:50:23.480Z,100.00
2022-10-19T20:52:54.978Z,100.00
2022-10-19T20:55:26.967Z,100.00
2022-10-19T20:57:58.450Z,100.00
2022-10-19T21:00:30.294Z,100.00
2022-10-19T21:03:02.127Z,100.00
2022-10-19T21:05:33.615Z,100.00
2022-10-19T21:08:05.551Z,100.00
2022-10-19T21:10:37.060Z,100.00
2022-10-19T21:13:08.901Z,100.00
2022-10-19T21:15:40.429Z,100.00
2022-10-19T21:18:12.219Z,100.00
2022-10-19T21:20:43.753Z,100.00
2022-10-19T21:23:15.561Z,100.00
2022-10-19T21:25:47.048Z,100.00
2022-10-19T21:28:18.935Z,100.00
2022-10-19T21:30:50.429Z,100.00
2022-10-19T21:33:22.328Z,100.00
2022-10-19T21:35:53.810Z,100.00
2022-10-19T21:38:25.668Z,100.00
2022-10-19T21:40:57.359Z,100.00
2022-10-19T21:43:29.188Z,100.00
2022-10-19T21:46:00.675Z,100.00
2022-10-19T21:48:32.576Z,100.00
2022-10-19T21:51:04.070Z,100.00
2022-10-19T21:53:35.880Z,100.00
2022-10-19T21:56:07.369Z,100.00
2022-10-19T21:58:39.208Z,100.00
2022-10-19T22:01:10.794Z,100.00
2022-10-19T22:03:42.674Z,100.00
2022-10-19T22:06:14.182Z,100.00
2022-10-19T22:08:46.367Z,100.00
2022-10-19T22:11:17.922Z,100.00
2022-10-19T22:13:49.782Z,100.00
2022-10-19T22:16:21.266Z,100.00
2022-10-19T22:18:53.225Z,100.00
2022-10-19T22:21:24.882Z,100.00
2022-10-19T22:23:56.713Z,100.00
2022-10-19T22:26:28.206Z,100.00
2022-10-19T22:29:00.204Z,100.00
2022-10-19T22:31:31.798Z,100.00
2022-10-19T22:34:03.297Z,100.00
2022-10-19T22:36:35.111Z,100.00
2022-10-19T22:39:06.648Z,100.00
2022-10-19T22:41:38.586Z,100.00
2022-10-19T22:44:10.166Z,100.00
2022-10-19T22:46:42.004Z,100.00
2022-10-19T22:49:13.523Z,100.00
2022-10-19T22:51:45.532Z,100.00
2022-10-19T22:54:17.037Z,100.00
2022-10-19T22:56:49.612Z,100.00
2022-10-19T22:59:21.131Z,100.00
2022-10-19T23:01:53.044Z,100.00
2022-10-19T23:04:24.679Z,100.00
2022-10-19T23:06:56.536Z,100.00
2022-10-19T23:09:28.106Z,100.00
2022-10-19T23:11:59.983Z,100.00
2022-10-19T23:14:31.533Z,100.00
2022-10-19T23:19:55.358Z,100.00
2022-10-19T23:22:27.161Z,100.00
2022-10-19T23:24:58.659Z,100.00
2022-10-19T23:27:30.456Z,100.00
2022-10-19T23:30:01.968Z,100.00
2022-10-19T23:32:33.982Z,100.00
2022-10-19T23:35:05.569Z,100.00
2022-10-19T23:37:37.883Z,100.00
2022-10-19T23:40:09.701Z,100.00
2022-10-19T23:42:41.712Z,100.00
2022-10-19T23:45:15.141Z,100.00
2022-10-19T23:47:47.037Z,100.00
2022-10-19T23:50:18.521Z,100.00
2022-10-19T23:52:50.045Z,100.00
2022-10-19T23:55:21.559Z,100.00
2022-10-19T23:57:53.415Z,100.00
